Jackson, MS

2:32 PM CST on March 06, 2015 (GMT -0600)
Chris' Weather Station | Change Station
CLOSE
Current Station
Personal Weather Station
Location: Jackson, MS
Elevation: 348 ft
Nearby Weather Stations
Active Advisory: Flood Warning Active Notice: Record Report, Local Storm Report

Elev 348 ft 32.35 °N, 90.17 °W | Updated 2 minutes ago

Clear
Clear
47.8 °F
Feels Like 48 °F
N
2.2
Wind Variable Wind from NE

Today
High -- | Low -- °F
--% Chance of Precip.
Yesterday
High -- | Low -- °F
Precip. -- in
6:22 AM 6:01 PM
Full, 99% visible
Pressure 30.48 in
Visibility 10.0 miles
Clouds Clear
Windchill 48 °F
Dew Point 21 °F
Humidity 34%
Rainfall in
Snow Depth Not available.
UV 6 out of 12
Pollen 7.10 out of 12
Air Quality Not available.
Flu Activity Not available.
METAR KHKS 061953Z AUTO 32007KT 290V010 10SM CLR 07/M08 A3049 RMK AO2 SLP321 T00721083

More Conditions Fewer Conditions

Pressure 30.48 in
Visibility 10.0 miles
Clouds Clear
Windchill 48 °F
Dew Point 21 °F
Humidity 34%
Rainfall in
Snow Depth Not available.
UV 6 out of 12
Pollen 7.10 out of 12
Air Quality Not available.
Flu Activity Not available.
METAR KHKS 061953Z AUTO 32007KT 290V010 10SM CLR 07/M08 A3049 RMK AO2 SLP321 T00721083

More Conditions Fewer Conditions

10-Day Weather Forecast

Almanac

Astronomy

Mar. 06, 2015 Rise Set
Actual Time
Civil Twilight
Nautical Twilight
Astronomical Twilight
Moon
Length of Visible Light
Length of Day
Tomorrow will be .
, % of the Moon is Illuminated

Today's Extremes

State Highs State Lows

Community

WunderPhotos

Upload Photos

1,803,389 photos uploaded!

WunderBlogs® & News

Nearby

Air Quality

  Air Quality AQ Index Pollutant
Not available.

Snow Depth

Station Depth Elevation

Earthquake Activity

City Distance Mag. Time & Date
Minimum magnitude displayed is 2.5.

Coastal Water Temperatures

Place Temperature

Nearby Weather Stations

Flood Warning
Statement as of 9:56 AM CST on March 06, 2015


The Flood Warning continues for
the Big Black River near Bovina
* until further notice.
* At 9:15 am Friday the stage was 31.7 feet.
* Minor flooding is occurring and minor flooding is forecast.
* Flood stage is 28.0 feet.
* Forecast... the river is cresting and will begin a very slow fall
this afternoon.


              Flood observed forecast 7 am crest
location stg stg day time Sat sun Mon crest time date

Lower Big Black River
Bovina 28 31.7 Fri 09 am 31.2 30.2 29.7 cresting




Lat... Lon 3217 9093 3224 9078 3256 9064 3245 9052
      3218 9065 3204 9102